sensor_id;sensor_type;location;lat;lon;timestamp;P1;durP1;ratioP1;P2;durP2;ratioP2
52564;SDS011;38460;53.106;7.004;2023-01-26T00:01:55;44.25;;;20.00;;
52564;SDS011;38460;53.106;7.004;2023-01-26T00:04:21;44.72;;;21.30;;
52564;SDS011;38460;53.106;7.004;2023-01-26T00:06:46;41.45;;;18.65;;
52564;SDS011;38460;53.106;7.004;2023-01-26T00:09:12;44.83;;;20.95;;
52564;SDS011;38460;53.106;7.004;2023-01-26T00:11:39;48.90;;;20.65;;
52564;SDS011;38460;53.106;7.004;2023-01-26T00:14:04;50.08;;;21.60;;
52564;SDS011;38460;53.106;7.004;2023-01-26T00:16:30;46.00;;;20.50;;
52564;SDS011;38460;53.106;7.004;2023-01-26T00:18:56;48.25;;;20.50;;
52564;SDS011;38460;53.106;7.004;2023-01-26T00:21:22;46.90;;;20.85;;
52564;SDS011;38460;53.106;7.004;2023-01-26T00:23:49;55.70;;;23.63;;
52564;SDS011;38460;53.106;7.004;2023-01-26T00:26:17;51.20;;;20.45;;
52564;SDS011;38460;53.106;7.004;2023-01-26T00:28:47;46.30;;;20.40;;
52564;SDS011;38460;53.106;7.004;2023-01-26T00:31:14;49.17;;;22.83;;
52564;SDS011;38460;53.106;7.004;2023-01-26T00:33:41;47.40;;;21.73;;
52564;SDS011;38460;53.106;7.004;2023-01-26T00:36:08;54.63;;;22.08;;
52564;SDS011;38460;53.106;7.004;2023-01-26T00:38:34;48.50;;;21.33;;
52564;SDS011;38460;53.106;7.004;2023-01-26T00:40:59;45.55;;;20.70;;
52564;SDS011;38460;53.106;7.004;2023-01-26T00:43:25;42.63;;;20.38;;
52564;SDS011;38460;53.106;7.004;2023-01-26T00:45:51;42.95;;;19.75;;
52564;SDS011;38460;53.106;7.004;2023-01-26T00:48:17;44.33;;;19.88;;
52564;SDS011;38460;53.106;7.004;2023-01-26T00:50:42;45.38;;;21.20;;
52564;SDS011;38460;53.106;7.004;2023-01-26T00:53:08;40.05;;;17.92;;
52564;SDS011;38460;53.106;7.004;2023-01-26T00:55:34;39.85;;;18.05;;
52564;SDS011;38460;53.106;7.004;2023-01-26T00:58:01;45.17;;;20.27;;
52564;SDS011;38460;53.106;7.004;2023-01-26T01:00:28;48.53;;;21.55;;
52564;SDS011;38460;53.106;7.004;2023-01-26T01:02:55;43.75;;;19.48;;
52564;SDS011;38460;53.106;7.004;2023-01-26T01:05:22;44.72;;;19.17;;
52564;SDS011;38460;53.106;7.004;2023-01-26T01:07:49;44.47;;;20.25;;
52564;SDS011;38460;53.106;7.004;2023-01-26T01:10:15;44.05;;;19.02;;
52564;SDS011;38460;53.106;7.004;2023-01-26T01:12:40;35.38;;;16.88;;
52564;SDS011;38460;53.106;7.004;2023-01-26T01:15:06;33.83;;;16.40;;
52564;SDS011;38460;53.106;7.004;2023-01-26T01:17:33;41.28;;;18.30;;
52564;SDS011;38460;53.106;7.004;2023-01-26T01:20:01;36.50;;;17.58;;
52564;SDS011;38460;53.106;7.004;2023-01-26T01:22:28;35.70;;;15.93;;
52564;SDS011;38460;53.106;7.004;2023-01-26T01:24:53;35.92;;;17.63;;
52564;SDS011;38460;53.106;7.004;2023-01-26T01:27:19;40.60;;;16.88;;
52564;SDS011;38460;53.106;7.004;2023-01-26T01:29:45;37.85;;;17.45;;
52564;SDS011;38460;53.106;7.004;2023-01-26T01:32:10;33.97;;;16.27;;
52564;SDS011;38460;53.106;7.004;2023-01-26T01:34:36;32.65;;;15.82;;
52564;SDS011;38460;53.106;7.004;2023-01-26T01:37:02;32.30;;;14.65;;
52564;SDS011;38460;53.106;7.004;2023-01-26T01:39:28;31.70;;;14.88;;
52564;SDS011;38460;53.106;7.004;2023-01-26T01:41:54;34.25;;;15.77;;
52564;SDS011;38460;53.106;7.004;2023-01-26T01:44:20;34.03;;;15.98;;
52564;SDS011;38460;53.106;7.004;2023-01-26T01:49:41;31.65;;;15.88;;
52564;SDS011;38460;53.106;7.004;2023-01-26T01:52:13;30.48;;;15.02;;
52564;SDS011;38460;53.106;7.004;2023-01-26T01:54:43;33.72;;;14.93;;
52564;SDS011;38460;53.106;7.004;2023-01-26T01:57:18;31.52;;;14.73;;
52564;SDS011;38460;53.106;7.004;2023-01-26T02:00:03;26.88;;;12.52;;
52564;SDS011;38460;53.106;7.004;2023-01-26T02:02:33;27.73;;;13.15;;
52564;SDS011;38460;53.106;7.004;2023-01-26T02:05:03;29.40;;;12.65;;
52564;SDS011;38460;53.106;7.004;2023-01-26T02:07:42;27.10;;;13.18;;
52564;SDS011;38460;53.106;7.004;2023-01-26T02:10:09;28.70;;;13.73;;
52564;SDS011;38460;53.106;7.004;2023-01-26T02:12:47;30.98;;;12.98;;
52564;SDS011;38460;53.106;7.004;2023-01-26T02:15:19;24.98;;;12.63;;
52564;SDS011;38460;53.106;7.004;2023-01-26T02:17:45;26.98;;;12.30;;
52564;SDS011;38460;53.106;7.004;2023-01-26T02:22:45;30.52;;;12.40;;
52564;SDS011;38460;53.106;7.004;2023-01-26T02:25:46;26.48;;;12.10;;
52564;SDS011;38460;53.106;7.004;2023-01-26T02:28:13;26.38;;;11.95;;
52564;SDS011;38460;53.106;7.004;2023-01-26T02:30:40;26.52;;;12.90;;
52564;SDS011;38460;53.106;7.004;2023-01-26T02:33:06;27.08;;;11.98;;
52564;SDS011;38460;53.106;7.004;2023-01-26T02:35:38;31.02;;;14.10;;
52564;SDS011;38460;53.106;7.004;2023-01-26T02:38:04;26.55;;;12.73;;
52564;SDS011;38460;53.106;7.004;2023-01-26T02:40:36;29.83;;;12.70;;
52564;SDS011;38460;53.106;7.004;2023-01-26T02:43:05;28.08;;;13.32;;
52564;SDS011;38460;53.106;7.004;2023-01-26T02:45:31;27.52;;;12.85;;
52564;SDS011;38460;53.106;7.004;2023-01-26T02:47:58;28.80;;;14.10;;
52564;SDS011;38460;53.106;7.004;2023-01-26T02:50:29;29.13;;;13.07;;
52564;SDS011;38460;53.106;7.004;2023-01-26T02:52:55;26.38;;;13.10;;
52564;SDS011;38460;53.106;7.004;2023-01-26T02:55:21;28.92;;;12.85;;
52564;SDS011;38460;53.106;7.004;2023-01-26T02:57:47;22.73;;;11.05;;
52564;SDS011;38460;53.106;7.004;2023-01-26T03:00:21;27.08;;;12.32;;
52564;SDS011;38460;53.106;7.004;2023-01-26T03:02:56;26.83;;;12.00;;
52564;SDS011;38460;53.106;7.004;2023-01-26T03:05:23;24.70;;;11.25;;
52564;SDS011;38460;53.106;7.004;2023-01-26T03:07:50;20.95;;;10.95;;
52564;SDS011;38460;53.106;7.004;2023-01-26T03:10:16;26.08;;;12.63;;
52564;SDS011;38460;53.106;7.004;2023-01-26T03:12:42;24.65;;;11.50;;
52564;SDS011;38460;53.106;7.004;2023-01-26T03:15:09;22.02;;;11.45;;
52564;SDS011;38460;53.106;7.004;2023-01-26T03:18:04;24.05;;;11.40;;
52564;SDS011;38460;53.106;7.004;2023-01-26T03:20:50;26.08;;;11.93;;
52564;SDS011;38460;53.106;7.004;2023-01-26T03:23:34;25.83;;;10.75;;
52564;SDS011;38460;53.106;7.004;2023-01-26T03:26:19;23.40;;;11.88;;
52564;SDS011;38460;53.106;7.004;2023-01-26T03:29:03;26.75;;;12.40;;
52564;SDS011;38460;53.106;7.004;2023-01-26T03:31:29;25.80;;;12.48;;
52564;SDS011;38460;53.106;7.004;2023-01-26T03:33:55;23.65;;;12.60;;
52564;SDS011;38460;53.106;7.004;2023-01-26T03:36:22;23.67;;;11.60;;
52564;SDS011;38460;53.106;7.004;2023-01-26T03:38:47;23.77;;;11.23;;
52564;SDS011;38460;53.106;7.004;2023-01-26T03:41:13;20.73;;;10.55;;
52564;SDS011;38460;53.106;7.004;2023-01-26T03:43:57;27.13;;;11.60;;
52564;SDS011;38460;53.106;7.004;2023-01-26T03:46:41;21.25;;;11.45;;
52564;SDS011;38460;53.106;7.004;2023-01-26T03:49:25;25.20;;;12.30;;
52564;SDS011;38460;53.106;7.004;2023-01-26T03:52:09;27.27;;;10.77;;
52564;SDS011;38460;53.106;7.004;2023-01-26T03:54:54;22.60;;;11.32;;
52564;SDS011;38460;53.106;7.004;2023-01-26T03:57:38;28.67;;;11.82;;
52564;SDS011;38460;53.106;7.004;2023-01-26T04:00:04;23.58;;;11.63;;
52564;SDS011;38460;53.106;7.004;2023-01-26T04:02:30;22.90;;;11.27;;
52564;SDS011;38460;53.106;7.004;2023-01-26T04:05:14;22.80;;;9.95;;
52564;SDS011;38460;53.106;7.004;2023-01-26T04:08:02;22.90;;;11.15;;
52564;SDS011;38460;53.106;7.004;2023-01-26T04:10:48;22.70;;;10.82;;
52564;SDS011;38460;53.106;7.004;2023-01-26T04:13:15;21.20;;;11.68;;
52564;SDS011;38460;53.106;7.004;2023-01-26T04:16:01;20.50;;;9.85;;
52564;SDS011;38460;53.106;7.004;2023-01-26T04:18:46;26.17;;;11.10;;
52564;SDS011;38460;53.106;7.004;2023-01-26T04:21:31;23.63;;;11.82;;
52564;SDS011;38460;53.106;7.004;2023-01-26T04:23:58;20.23;;;10.38;;
52564;SDS011;38460;53.106;7.004;2023-01-26T04:26:26;22.42;;;10.93;;
52564;SDS011;38460;53.106;7.004;2023-01-26T04:29:05;24.63;;;11.02;;
52564;SDS011;38460;53.106;7.004;2023-01-26T04:31:32;23.15;;;10.88;;
52564;SDS011;38460;53.106;7.004;2023-01-26T04:34:02;23.20;;;10.73;;
52564;SDS011;38460;53.106;7.004;2023-01-26T04:36:29;27.50;;;11.90;;
52564;SDS011;38460;53.106;7.004;2023-01-26T04:38:56;21.63;;;11.15;;
52564;SDS011;38460;53.106;7.004;2023-01-26T04:41:22;28.05;;;12.32;;
52564;SDS011;38460;53.106;7.004;2023-01-26T04:43:48;21.98;;;11.30;;
52564;SDS011;38460;53.106;7.004;2023-01-26T04:46:14;26.63;;;12.40;;
52564;SDS011;38460;53.106;7.004;2023-01-26T04:48:40;26.17;;;12.52;;
52564;SDS011;38460;53.106;7.004;2023-01-26T04:51:07;23.15;;;10.45;;
52564;SDS011;38460;53.106;7.004;2023-01-26T04:53:37;19.70;;;10.27;;
52564;SDS011;38460;53.106;7.004;2023-01-26T04:56:03;20.95;;;9.95;;
52564;SDS011;38460;53.106;7.004;2023-01-26T04:58:29;23.23;;;10.45;;
52564;SDS011;38460;53.106;7.004;2023-01-26T05:00:56;21.45;;;9.90;;
52564;SDS011;38460;53.106;7.004;2023-01-26T05:03:23;21.33;;;10.57;;
52564;SDS011;38460;53.106;7.004;2023-01-26T05:05:50;24.02;;;11.10;;
52564;SDS011;38460;53.106;7.004;2023-01-26T05:08:18;27.92;;;11.57;;
52564;SDS011;38460;53.106;7.004;2023-01-26T05:10:45;24.70;;;11.13;;
52564;SDS011;38460;53.106;7.004;2023-01-26T05:13:11;21.23;;;10.95;;
52564;SDS011;38460;53.106;7.004;2023-01-26T05:15:38;24.58;;;10.27;;
52564;SDS011;38460;53.106;7.004;2023-01-26T05:18:04;26.33;;;11.48;;
52564;SDS011;38460;53.106;7.004;2023-01-26T05:20:30;24.10;;;10.82;;
52564;SDS011;38460;53.106;7.004;2023-01-26T05:22:56;21.80;;;10.10;;
52564;SDS011;38460;53.106;7.004;2023-01-26T05:25:22;19.15;;;10.45;;
52564;SDS011;38460;53.106;7.004;2023-01-26T05:27:48;19.80;;;10.95;;
52564;SDS011;38460;53.106;7.004;2023-01-26T05:30:14;23.05;;;10.52;;
52564;SDS011;38460;53.106;7.004;2023-01-26T05:32:40;19.33;;;10.15;;
52564;SDS011;38460;53.106;7.004;2023-01-26T05:35:06;23.63;;;11.18;;
52564;SDS011;38460;53.106;7.004;2023-01-26T05:37:33;22.77;;;10.55;;
52564;SDS011;38460;53.106;7.004;2023-01-26T05:39:59;19.92;;;9.35;;
52564;SDS011;38460;53.106;7.004;2023-01-26T05:42:25;21.85;;;9.98;;
52564;SDS011;38460;53.106;7.004;2023-01-26T05:44:51;17.20;;;9.07;;
52564;SDS011;38460;53.106;7.004;2023-01-26T05:47:17;16.88;;;9.70;;
52564;SDS011;38460;53.106;7.004;2023-01-26T05:49:44;23.23;;;10.68;;
52564;SDS011;38460;53.106;7.004;2023-01-26T05:52:13;18.15;;;8.65;;
52564;SDS011;38460;53.106;7.004;2023-01-26T05:54:41;18.52;;;9.13;;
52564;SDS011;38460;53.106;7.004;2023-01-26T05:57:07;19.73;;;9.80;;
52564;SDS011;38460;53.106;7.004;2023-01-26T05:59:33;18.17;;;8.60;;
52564;SDS011;38460;53.106;7.004;2023-01-26T06:01:59;20.98;;;9.82;;
52564;SDS011;38460;53.106;7.004;2023-01-26T06:04:25;26.60;;;11.30;;
52564;SDS011;38460;53.106;7.004;2023-01-26T06:06:52;36.03;;;14.25;;
52564;SDS011;38460;53.106;7.004;2023-01-26T06:09:22;29.00;;;12.05;;
52564;SDS011;38460;53.106;7.004;2023-01-26T06:11:48;26.98;;;12.32;;
52564;SDS011;38460;53.106;7.004;2023-01-26T06:14:14;21.88;;;10.63;;
52564;SDS011;38460;53.106;7.004;2023-01-26T06:16:40;26.88;;;11.80;;
52564;SDS011;38460;53.106;7.004;2023-01-26T06:19:07;26.10;;;11.05;;
52564;SDS011;38460;53.106;7.004;2023-01-26T06:21:34;24.50;;;12.38;;
52564;SDS011;38460;53.106;7.004;2023-01-26T06:24:00;25.90;;;10.35;;
52564;SDS011;38460;53.106;7.004;2023-01-26T06:26:26;22.10;;;10.35;;
52564;SDS011;38460;53.106;7.004;2023-01-26T06:28:52;30.77;;;12.20;;
52564;SDS011;38460;53.106;7.004;2023-01-26T06:31:18;27.50;;;12.30;;
52564;SDS011;38460;53.106;7.004;2023-01-26T06:33:45;27.30;;;11.25;;
52564;SDS011;38460;53.106;7.004;2023-01-26T06:36:12;28.55;;;11.13;;
52564;SDS011;38460;53.106;7.004;2023-01-26T06:38:43;27.83;;;11.50;;
52564;SDS011;38460;53.106;7.004;2023-01-26T06:41:13;29.77;;;11.30;;
52564;SDS011;38460;53.106;7.004;2023-01-26T06:43:42;31.92;;;12.05;;
52564;SDS011;38460;53.106;7.004;2023-01-26T06:46:12;30.45;;;11.52;;
52564;SDS011;38460;53.106;7.004;2023-01-26T06:48:39;24.42;;;11.63;;
52564;SDS011;38460;53.106;7.004;2023-01-26T06:51:40;23.05;;;10.93;;
52564;SDS011;38460;53.106;7.004;2023-01-26T06:54:09;22.35;;;10.05;;
52564;SDS011;38460;53.106;7.004;2023-01-26T06:56:36;22.25;;;9.90;;
52564;SDS011;38460;53.106;7.004;2023-01-26T06:59:02;25.30;;;10.70;;
52564;SDS011;38460;53.106;7.004;2023-01-26T07:01:28;20.65;;;9.63;;
52564;SDS011;38460;53.106;7.004;2023-01-26T07:04:00;22.25;;;9.90;;
52564;SDS011;38460;53.106;7.004;2023-01-26T07:06:26;23.88;;;11.60;;
52564;SDS011;38460;53.106;7.004;2023-01-26T07:08:52;21.13;;;9.63;;
52564;SDS011;38460;53.106;7.004;2023-01-26T07:11:17;24.55;;;10.60;;
52564;SDS011;38460;53.106;7.004;2023-01-26T07:13:44;29.45;;;11.63;;
52564;SDS011;38460;53.106;7.004;2023-01-26T07:16:11;26.45;;;11.85;;
52564;SDS011;38460;53.106;7.004;2023-01-26T07:18:38;24.80;;;11.65;;
52564;SDS011;38460;53.106;7.004;2023-01-26T07:21:11;34.55;;;12.00;;
52564;SDS011;38460;53.106;7.004;2023-01-26T07:23:38;28.08;;;11.25;;
52564;SDS011;38460;53.106;7.004;2023-01-26T07:26:04;25.92;;;11.43;;
52564;SDS011;38460;53.106;7.004;2023-01-26T07:28:31;26.23;;;12.30;;
52564;SDS011;38460;53.106;7.004;2023-01-26T07:30:58;27.15;;;11.02;;
52564;SDS011;38460;53.106;7.004;2023-01-26T07:33:25;23.95;;;11.50;;
52564;SDS011;38460;53.106;7.004;2023-01-26T07:35:53;31.25;;;12.65;;
52564;SDS011;38460;53.106;7.004;2023-01-26T07:38:23;33.35;;;12.02;;
52564;SDS011;38460;53.106;7.004;2023-01-26T07:40:49;32.33;;;12.95;;
52564;SDS011;38460;53.106;7.004;2023-01-26T07:43:15;32.83;;;12.13;;
52564;SDS011;38460;53.106;7.004;2023-01-26T07:45:45;30.73;;;12.32;;
52564;SDS011;38460;53.106;7.004;2023-01-26T07:48:12;30.25;;;11.52;;
52564;SDS011;38460;53.106;7.004;2023-01-26T07:50:39;28.90;;;11.77;;
52564;SDS011;38460;53.106;7.004;2023-01-26T07:53:05;33.33;;;13.27;;
52564;SDS011;38460;53.106;7.004;2023-01-26T07:55:33;32.50;;;13.50;;
52564;SDS011;38460;53.106;7.004;2023-01-26T07:58:00;40.42;;;14.55;;
52564;SDS011;38460;53.106;7.004;2023-01-26T08:00:25;39.75;;;13.65;;
52564;SDS011;38460;53.106;7.004;2023-01-26T08:02:51;35.28;;;13.63;;
52564;SDS011;38460;53.106;7.004;2023-01-26T08:05:17;49.70;;;14.52;;
52564;SDS011;38460;53.106;7.004;2023-01-26T08:07:43;39.17;;;13.50;;
52564;SDS011;38460;53.106;7.004;2023-01-26T08:10:09;34.97;;;13.82;;
52564;SDS011;38460;53.106;7.004;2023-01-26T08:12:36;30.60;;;13.00;;
52564;SDS011;38460;53.106;7.004;2023-01-26T08:15:02;39.55;;;14.18;;
52564;SDS011;38460;53.106;7.004;2023-01-26T08:17:29;41.20;;;12.13;;
52564;SDS011;38460;53.106;7.004;2023-01-26T08:19:57;41.55;;;12.98;;
52564;SDS011;38460;53.106;7.004;2023-01-26T08:22:23;32.20;;;12.20;;
52564;SDS011;38460;53.106;7.004;2023-01-26T08:24:49;34.60;;;13.05;;
52564;SDS011;38460;53.106;7.004;2023-01-26T08:27:15;35.88;;;11.90;;
52564;SDS011;38460;53.106;7.004;2023-01-26T08:29:41;27.67;;;11.45;;
52564;SDS011;38460;53.106;7.004;2023-01-26T08:32:07;31.00;;;11.40;;
52564;SDS011;38460;53.106;7.004;2023-01-26T08:34:33;33.38;;;11.10;;
52564;SDS011;38460;53.106;7.004;2023-01-26T08:36:59;32.25;;;11.40;;
52564;SDS011;38460;53.106;7.004;2023-01-26T08:39:26;28.83;;;9.10;;
52564;SDS011;38460;53.106;7.004;2023-01-26T08:41:53;31.50;;;10.82;;
52564;SDS011;38460;53.106;7.004;2023-01-26T08:44:19;25.05;;;9.25;;
52564;SDS011;38460;53.106;7.004;2023-01-26T08:46:45;35.22;;;10.57;;
52564;SDS011;38460;53.106;7.004;2023-01-26T08:49:11;27.35;;;8.60;;
52564;SDS011;38460;53.106;7.004;2023-01-26T08:51:37;25.58;;;7.97;;
52564;SDS011;38460;53.106;7.004;2023-01-26T08:54:05;31.58;;;9.20;;
52564;SDS011;38460;53.106;7.004;2023-01-26T08:56:34;29.60;;;8.15;;
52564;SDS011;38460;53.106;7.004;2023-01-26T08:59:00;24.85;;;8.70;;
52564;SDS011;38460;53.106;7.004;2023-01-26T09:01:26;33.72;;;9.02;;
52564;SDS011;38460;53.106;7.004;2023-01-26T09:03:52;29.33;;;7.30;;
52564;SDS011;38460;53.106;7.004;2023-01-26T09:06:20;30.52;;;7.72;;
52564;SDS011;38460;53.106;7.004;2023-01-26T09:08:45;28.08;;;7.47;;
52564;SDS011;38460;53.106;7.004;2023-01-26T09:11:11;23.33;;;6.15;;
52564;SDS011;38460;53.106;7.004;2023-01-26T09:13:37;29.17;;;7.78;;
52564;SDS011;38460;53.106;7.004;2023-01-26T09:16:08;27.20;;;6.43;;
52564;SDS011;38460;53.106;7.004;2023-01-26T09:18:39;29.60;;;7.80;;
52564;SDS011;38460;53.106;7.004;2023-01-26T09:21:06;33.50;;;7.30;;
52564;SDS011;38460;53.106;7.004;2023-01-26T09:23:33;25.80;;;6.25;;
52564;SDS011;38460;53.106;7.004;2023-01-26T09:26:00;23.73;;;6.35;;
52564;SDS011;38460;53.106;7.004;2023-01-26T09:28:27;30.83;;;6.97;;
52564;SDS011;38460;53.106;7.004;2023-01-26T09:30:53;33.13;;;8.20;;
52564;SDS011;38460;53.106;7.004;2023-01-26T09:33:19;25.92;;;6.97;;
52564;SDS011;38460;53.106;7.004;2023-01-26T09:35:47;30.05;;;7.50;;
52564;SDS011;38460;53.106;7.004;2023-01-26T09:38:13;25.27;;;6.47;;
52564;SDS011;38460;53.106;7.004;2023-01-26T09:51:42;31.08;;;8.05;;
52564;SDS011;38460;53.106;7.004;2023-01-26T09:54:26;21.33;;;6.07;;
52564;SDS011;38460;53.106;7.004;2023-01-26T09:57:01;35.25;;;8.57;;
52564;SDS011;38460;53.106;7.004;2023-01-26T09:59:39;27.50;;;8.13;;
52564;SDS011;38460;53.106;7.004;2023-01-26T10:02:41;28.90;;;7.70;;
52564;SDS011;38460;53.106;7.004;2023-01-26T10:05:13;40.63;;;9.63;;
52564;SDS011;38460;53.106;7.004;2023-01-26T10:07:48;30.52;;;7.63;;
52564;SDS011;38460;53.106;7.004;2023-01-26T10:10:25;24.85;;;7.82;;
52564;SDS011;38460;53.106;7.004;2023-01-26T10:12:58;29.85;;;7.95;;
52564;SDS011;38460;53.106;7.004;2023-01-26T10:15:35;29.13;;;7.65;;
52564;SDS011;38460;53.106;7.004;2023-01-26T10:18:10;29.35;;;6.75;;
52564;SDS011;38460;53.106;7.004;2023-01-26T10:20:42;23.17;;;6.50;;
52564;SDS011;38460;53.106;7.004;2023-01-26T10:23:17;35.63;;;7.80;;
52564;SDS011;38460;53.106;7.004;2023-01-26T10:25:48;29.60;;;7.45;;
52564;SDS011;38460;53.106;7.004;2023-01-26T10:28:29;25.75;;;8.38;;
52564;SDS011;38460;53.106;7.004;2023-01-26T10:30:57;26.55;;;7.22;;
52564;SDS011;38460;53.106;7.004;2023-01-26T10:35:59;29.92;;;7.10;;
52564;SDS011;38460;53.106;7.004;2023-01-26T10:41:21;27.17;;;6.65;;
52564;SDS011;38460;53.106;7.004;2023-01-26T10:43:52;33.58;;;7.10;;
52564;SDS011;38460;53.106;7.004;2023-01-26T10:46:42;24.27;;;7.30;;
52564;SDS011;38460;53.106;7.004;2023-01-26T10:51:37;24.48;;;6.15;;
52564;SDS011;38460;53.106;7.004;2023-01-26T10:54:21;20.33;;;5.65;;
52564;SDS011;38460;53.106;7.004;2023-01-26T10:59:38;22.40;;;6.90;;
52564;SDS011;38460;53.106;7.004;2023-01-26T11:04:35;15.52;;;5.30;;
52564;SDS011;38460;53.106;7.004;2023-01-26T11:13:18;25.98;;;4.63;;
52564;SDS011;38460;53.106;7.004;2023-01-26T11:15:46;18.35;;;4.35;;
52564;SDS011;38460;53.106;7.004;2023-01-26T12:00:15;11.18;;;3.92;;
52564;SDS011;38460;53.106;7.004;2023-01-26T12:02:42;19.00;;;3.83;;
52564;SDS011;38460;53.106;7.004;2023-01-26T12:05:23;19.30;;;3.03;;
52564;SDS011;38460;53.106;7.004;2023-01-26T12:21:56;14.38;;;3.53;;
52564;SDS011;38460;53.106;7.004;2023-01-26T12:24:40;15.32;;;3.10;;
52564;SDS011;38460;53.106;7.004;2023-01-26T12:29:46;11.68;;;3.13;;
52564;SDS011;38460;53.106;7.004;2023-01-26T12:32:16;10.48;;;3.00;;
52564;SDS011;38460;53.106;7.004;2023-01-26T12:34:42;12.75;;;3.13;;
52564;SDS011;38460;53.106;7.004;2023-01-26T12:42:50;13.43;;;4.03;;
52564;SDS011;38460;53.106;7.004;2023-01-26T12:45:37;12.85;;;3.40;;
52564;SDS011;38460;53.106;7.004;2023-01-26T12:50:54;14.10;;;3.20;;
52564;SDS011;38460;53.106;7.004;2023-01-26T12:53:29;13.07;;;3.55;;
52564;SDS011;38460;53.106;7.004;2023-01-26T12:56:26;8.85;;;2.63;;
52564;SDS011;38460;53.106;7.004;2023-01-26T12:59:14;13.32;;;3.00;;
52564;SDS011;38460;53.106;7.004;2023-01-26T13:01:48;16.95;;;3.65;;
52564;SDS011;38460;53.106;7.004;2023-01-26T13:04:14;11.77;;;2.78;;
52564;SDS011;38460;53.106;7.004;2023-01-26T13:06:42;13.00;;;2.55;;
52564;SDS011;38460;53.106;7.004;2023-01-26T13:09:24;11.07;;;3.83;;
52564;SDS011;38460;53.106;7.004;2023-01-26T13:11:56;9.27;;;2.63;;
52564;SDS011;38460;53.106;7.004;2023-01-26T13:14:34;10.75;;;2.60;;
52564;SDS011;38460;53.106;7.004;2023-01-26T13:27:33;8.55;;;2.25;;
52564;SDS011;38460;53.106;7.004;2023-01-26T13:30:02;6.05;;;2.13;;
52564;SDS011;38460;53.106;7.004;2023-01-26T13:35:26;10.75;;;2.20;;
52564;SDS011;38460;53.106;7.004;2023-01-26T13:40:45;10.13;;;4.03;;
52564;SDS011;38460;53.106;7.004;2023-01-26T13:45:57;9.13;;;2.05;;
52564;SDS011;38460;53.106;7.004;2023-01-26T13:48:39;11.20;;;2.28;;
52564;SDS011;38460;53.106;7.004;2023-01-26T13:51:13;11.80;;;2.47;;
52564;SDS011;38460;53.106;7.004;2023-01-26T13:53:46;7.50;;;2.50;;
52564;SDS011;38460;53.106;7.004;2023-01-26T13:56:36;7.53;;;2.42;;
52564;SDS011;38460;53.106;7.004;2023-01-26T14:01:32;13.48;;;2.40;;
52564;SDS011;38460;53.106;7.004;2023-01-26T14:04:04;9.83;;;2.27;;
52564;SDS011;38460;53.106;7.004;2023-01-26T14:06:31;10.30;;;2.67;;
52564;SDS011;38460;53.106;7.004;2023-01-26T14:08:59;9.40;;;2.50;;
52564;SDS011;38460;53.106;7.004;2023-01-26T14:11:27;10.45;;;2.42;;
52564;SDS011;38460;53.106;7.004;2023-01-26T14:13:55;9.93;;;2.95;;
52564;SDS011;38460;53.106;7.004;2023-01-26T14:19:11;11.90;;;2.78;;
52564;SDS011;38460;53.106;7.004;2023-01-26T14:21:59;11.05;;;1.95;;
52564;SDS011;38460;53.106;7.004;2023-01-26T14:26:55;13.13;;;2.35;;
52564;SDS011;38460;53.106;7.004;2023-01-26T14:29:23;8.40;;;1.42;;
52564;SDS011;38460;53.106;7.004;2023-01-26T14:31:50;7.45;;;1.60;;
52564;SDS011;38460;53.106;7.004;2023-01-26T14:34:23;8.63;;;2.10;;
52564;SDS011;38460;53.106;7.004;2023-01-26T14:37:15;8.32;;;2.40;;
52564;SDS011;38460;53.106;7.004;2023-01-26T14:39:42;6.15;;;2.20;;
52564;SDS011;38460;53.106;7.004;2023-01-26T14:42:13;7.82;;;2.60;;
52564;SDS011;38460;53.106;7.004;2023-01-26T14:44:40;6.50;;;1.83;;
52564;SDS011;38460;53.106;7.004;2023-01-26T14:47:17;7.93;;;2.35;;
52564;SDS011;38460;53.106;7.004;2023-01-26T14:52:35;11.45;;;2.00;;
52564;SDS011;38460;53.106;7.004;2023-01-26T14:55:07;9.38;;;2.13;;
52564;SDS011;38460;53.106;7.004;2023-01-26T14:57:51;9.73;;;2.65;;
52564;SDS011;38460;53.106;7.004;2023-01-26T15:00:23;7.40;;;2.50;;
52564;SDS011;38460;53.106;7.004;2023-01-26T15:02:53;7.85;;;2.38;;
52564;SDS011;38460;53.106;7.004;2023-01-26T15:05:21;6.10;;;2.35;;
52564;SDS011;38460;53.106;7.004;2023-01-26T15:07:59;9.40;;;2.30;;
52564;SDS011;38460;53.106;7.004;2023-01-26T15:13:05;11.23;;;2.50;;
52564;SDS011;38460;53.106;7.004;2023-01-26T15:15:39;9.82;;;3.08;;
52564;SDS011;38460;53.106;7.004;2023-01-26T15:23:18;10.30;;;2.20;;
52564;SDS011;38460;53.106;7.004;2023-01-26T15:25:47;11.57;;;2.00;;
52564;SDS011;38460;53.106;7.004;2023-01-26T15:28:21;8.60;;;2.20;;
52564;SDS011;38460;53.106;7.004;2023-01-26T15:30:50;10.23;;;2.20;;
52564;SDS011;38460;53.106;7.004;2023-01-26T15:38:58;9.80;;;2.13;;
52564;SDS011;38460;53.106;7.004;2023-01-26T15:41:33;12.63;;;2.97;;
52564;SDS011;38460;53.106;7.004;2023-01-26T15:43:59;7.43;;;2.67;;
52564;SDS011;38460;53.106;7.004;2023-01-26T15:46:25;13.43;;;2.38;;
52564;SDS011;38460;53.106;7.004;2023-01-26T15:48:51;9.02;;;2.47;;
52564;SDS011;38460;53.106;7.004;2023-01-26T15:51:16;8.73;;;2.25;;
52564;SDS011;38460;53.106;7.004;2023-01-26T15:53:43;11.57;;;2.78;;
52564;SDS011;38460;53.106;7.004;2023-01-26T15:56:12;8.48;;;2.92;;
52564;SDS011;38460;53.106;7.004;2023-01-26T15:58:39;14.40;;;3.63;;
52564;SDS011;38460;53.106;7.004;2023-01-26T16:01:06;11.40;;;3.15;;
52564;SDS011;38460;53.106;7.004;2023-01-26T16:03:34;12.32;;;2.50;;
52564;SDS011;38460;53.106;7.004;2023-01-26T16:06:00;6.85;;;2.30;;
52564;SDS011;38460;53.106;7.004;2023-01-26T16:08:26;12.30;;;3.17;;
52564;SDS011;38460;53.106;7.004;2023-01-26T16:10:51;9.65;;;2.58;;
52564;SDS011;38460;53.106;7.004;2023-01-26T16:13:23;10.35;;;2.78;;
52564;SDS011;38460;53.106;7.004;2023-01-26T16:15:50;11.77;;;4.25;;
52564;SDS011;38460;53.106;7.004;2023-01-26T16:18:17;8.90;;;3.22;;
52564;SDS011;38460;53.106;7.004;2023-01-26T16:20:44;10.80;;;3.58;;
52564;SDS011;38460;53.106;7.004;2023-01-26T16:23:25;13.88;;;3.90;;
52564;SDS011;38460;53.106;7.004;2023-01-26T16:25:52;10.60;;;2.67;;
52564;SDS011;38460;53.106;7.004;2023-01-26T16:28:19;9.50;;;3.00;;
52564;SDS011;38460;53.106;7.004;2023-01-26T16:30:46;12.43;;;3.00;;
52564;SDS011;38460;53.106;7.004;2023-01-26T16:33:15;12.40;;;2.67;;
52564;SDS011;38460;53.106;7.004;2023-01-26T16:35:45;13.30;;;5.55;;
52564;SDS011;38460;53.106;7.004;2023-01-26T16:38:11;13.07;;;3.15;;
52564;SDS011;38460;53.106;7.004;2023-01-26T16:40:38;16.40;;;3.55;;
52564;SDS011;38460;53.106;7.004;2023-01-26T16:43:10;12.32;;;3.17;;
52564;SDS011;38460;53.106;7.004;2023-01-26T16:45:42;11.57;;;3.40;;
52564;SDS011;38460;53.106;7.004;2023-01-26T16:48:11;8.90;;;2.80;;
52564;SDS011;38460;53.106;7.004;2023-01-26T16:50:39;13.80;;;3.22;;
52564;SDS011;38460;53.106;7.004;2023-01-26T16:53:28;13.27;;;3.80;;
52564;SDS011;38460;53.106;7.004;2023-01-26T16:55:57;14.95;;;4.38;;
52564;SDS011;38460;53.106;7.004;2023-01-26T16:58:23;10.30;;;3.20;;
52564;SDS011;38460;53.106;7.004;2023-01-26T17:00:50;13.50;;;3.75;;
52564;SDS011;38460;53.106;7.004;2023-01-26T17:03:17;14.55;;;4.13;;
52564;SDS011;38460;53.106;7.004;2023-01-26T17:05:43;15.60;;;3.83;;
52564;SDS011;38460;53.106;7.004;2023-01-26T17:08:09;14.32;;;3.45;;
52564;SDS011;38460;53.106;7.004;2023-01-26T17:10:35;12.88;;;3.40;;